createdAt,value
2022-10-19T00:00:07.913Z,26.28
2022-10-19T00:00:39.353Z,26.28
2022-10-19T00:01:10.821Z,26.29
2022-10-19T00:01:42.269Z,26.29
2022-10-19T00:02:13.833Z,26.32
2022-10-19T00:02:45.297Z,26.30
2022-10-19T00:03:20.688Z,26.30
2022-10-19T00:03:54.636Z,26.30
2022-10-19T00:04:26.030Z,26.30
2022-10-19T00:04:57.428Z,26.31
2022-10-19T00:05:28.862Z,26.32
2022-10-19T00:06:00.237Z,26.32
2022-10-19T00:06:31.667Z,26.30
2022-10-19T00:07:03.100Z,26.31
2022-10-19T00:07:34.710Z,26.32
2022-10-19T00:08:06.411Z,26.32
2022-10-19T00:08:37.816Z,26.33
2022-10-19T00:09:09.217Z,26.32
2022-10-19T00:09:40.621Z,26.32
2022-10-19T00:10:12.072Z,26.34
2022-10-19T00:10:43.488Z,26.34
2022-10-19T00:11:14.990Z,26.34
2022-10-19T00:11:46.430Z,26.33
2022-10-19T00:12:17.821Z,26.32
2022-10-19T00:13:25.640Z,26.33
2022-10-19T00:13:57.117Z,26.28
2022-10-19T00:14:28.537Z,26.29
2022-10-19T00:14:59.926Z,26.30
2022-10-19T00:15:31.392Z,26.32
2022-10-19T00:16:02.910Z,26.32
2022-10-19T00:16:34.635Z,26.34
2022-10-19T00:17:06.063Z,26.34
2022-10-19T00:17:37.535Z,26.33
2022-10-19T00:18:09.013Z,26.32
2022-10-19T00:18:40.469Z,26.31
2022-10-19T00:19:11.876Z,26.30
2022-10-19T00:19:43.338Z,26.32
2022-10-19T00:20:14.721Z,26.29
2022-10-19T00:20:46.164Z,26.33
2022-10-19T00:21:17.616Z,26.34
2022-10-19T00:22:25.549Z,26.27
2022-10-19T00:22:56.977Z,26.24
2022-10-19T00:23:28.398Z,26.27
2022-10-19T00:23:59.817Z,26.29
2022-10-19T00:24:31.232Z,26.27
2022-10-19T00:25:02.630Z,26.28
2022-10-19T00:25:34.033Z,26.31
2022-10-19T00:26:05.467Z,26.33
2022-10-19T00:26:36.910Z,26.35
2022-10-19T00:27:08.336Z,26.35
2022-10-19T00:27:39.709Z,26.33
2022-10-19T00:28:11.154Z,26.33
2022-10-19T00:28:42.586Z,26.32
2022-10-19T00:29:14.268Z,26.33
2022-10-19T00:29:45.715Z,26.32
2022-10-19T00:30:17.133Z,26.35
2022-10-19T00:31:20.932Z,26.35
2022-10-19T00:31:52.358Z,26.38
2022-10-19T00:32:23.867Z,26.38
2022-10-19T00:32:55.277Z,26.37
2022-10-19T00:33:26.679Z,26.35
2022-10-19T00:33:58.053Z,26.37
2022-10-19T00:34:29.482Z,26.38
2022-10-19T00:35:00.862Z,26.38
2022-10-19T00:35:32.341Z,26.41
2022-10-19T00:36:03.813Z,26.39
2022-10-19T00:36:35.227Z,26.39
2022-10-19T00:37:06.603Z,26.41
2022-10-19T00:37:38.055Z,26.35
2022-10-19T00:38:09.459Z,26.38
2022-10-19T00:38:40.869Z,26.38
2022-10-19T00:39:12.346Z,26.39
2022-10-19T00:39:43.996Z,26.41
2022-10-19T00:40:15.414Z,26.37
2022-10-19T00:40:46.849Z,26.40
2022-10-19T00:41:18.307Z,26.39
2022-10-19T00:41:49.874Z,26.39
2022-10-19T00:42:21.361Z,26.36
2022-10-19T00:42:52.822Z,26.35
2022-10-19T00:43:24.227Z,26.36
2022-10-19T00:43:55.652Z,26.36
2022-10-19T00:44:27.059Z,26.38
2022-10-19T00:44:58.448Z,26.35
2022-10-19T00:45:29.874Z,26.35
2022-10-19T00:46:01.264Z,26.33
2022-10-19T00:46:32.666Z,26.34
2022-10-19T00:47:04.113Z,26.30
2022-10-19T00:47:35.515Z,26.28
2022-10-19T00:48:06.958Z,26.29
2022-10-19T00:48:38.444Z,26.29
2022-10-19T00:49:10.927Z,26.30
2022-10-19T00:49:42.628Z,26.28
2022-10-19T00:50:14.097Z,26.24
2022-10-19T00:50:45.498Z,26.28
2022-10-19T00:51:16.872Z,26.24
2022-10-19T00:51:48.315Z,26.28
2022-10-19T00:52:19.683Z,26.30
2022-10-19T00:52:51.064Z,26.33
2022-10-19T00:53:22.504Z,26.34
2022-10-19T00:53:53.904Z,26.35
2022-10-19T00:54:25.294Z,26.37
2022-10-19T00:54:56.678Z,26.34
2022-10-19T00:55:28.067Z,26.32
2022-10-19T00:55:59.483Z,26.29
2022-10-19T00:56:30.899Z,26.30
2022-10-19T00:57:02.472Z,26.32
2022-10-19T00:57:33.920Z,26.31
2022-10-19T00:58:05.379Z,26.32
2022-10-19T00:58:36.912Z,26.33
2022-10-19T00:59:08.482Z,26.32
2022-10-19T00:59:39.988Z,26.32
2022-10-19T01:00:11.597Z,26.36
2022-10-19T01:00:43.067Z,26.41
2022-10-19T01:01:14.700Z,26.40
2022-10-19T01:01:46.134Z,26.38
2022-10-19T01:02:17.559Z,26.38
2022-10-19T01:02:48.984Z,26.40
2022-10-19T01:03:20.384Z,26.41
2022-10-19T01:03:51.838Z,26.43
2022-10-19T01:04:23.222Z,26.44
2022-10-19T01:04:54.666Z,26.43
2022-10-19T01:05:26.124Z,26.43
2022-10-19T01:05:57.568Z,26.42
2022-10-19T01:06:29.006Z,26.37
2022-10-19T01:07:00.432Z,26.42
2022-10-19T01:07:32.198Z,26.43
2022-10-19T01:08:03.835Z,26.44
2022-10-19T01:08:35.226Z,26.43
2022-10-19T01:09:06.630Z,26.41
2022-10-19T01:09:38.081Z,26.45
2022-10-19T01:10:09.608Z,26.43
2022-10-19T01:10:41.006Z,26.46
2022-10-19T01:11:12.412Z,26.44
2022-10-19T01:11:43.849Z,26.44
2022-10-19T01:12:15.381Z,26.44
2022-10-19T01:12:46.787Z,26.40
2022-10-19T01:13:18.228Z,26.42
2022-10-19T01:13:49.618Z,26.41
2022-10-19T01:14:21.053Z,26.42
2022-10-19T01:14:52.528Z,26.41
2022-10-19T01:15:23.931Z,26.41
2022-10-19T01:15:55.415Z,26.43
2022-10-19T01:16:26.861Z,26.43
2022-10-19T01:16:58.349Z,26.44
2022-10-19T01:17:29.736Z,26.45
2022-10-19T01:18:01.214Z,26.45
2022-10-19T01:18:32.584Z,26.43
2022-10-19T01:19:03.982Z,26.46
2022-10-19T01:19:35.373Z,26.45
2022-10-19T01:20:06.814Z,26.38
2022-10-19T01:20:38.265Z,26.34
2022-10-19T01:21:09.759Z,26.31
2022-10-19T01:21:41.173Z,26.28
2022-10-19T01:22:12.583Z,26.27
2022-10-19T01:22:44.048Z,26.31
2022-10-19T01:23:15.450Z,26.29
2022-10-19T01:23:47.000Z,26.29
2022-10-19T01:24:18.466Z,26.22
2022-10-19T01:24:50.041Z,26.22
2022-10-19T01:25:21.511Z,26.22
2022-10-19T01:25:52.908Z,26.24
2022-10-19T01:26:24.318Z,26.26
2022-10-19T01:26:55.752Z,26.25
2022-10-19T01:27:27.199Z,26.27
2022-10-19T01:27:58.631Z,26.27
2022-10-19T01:28:30.111Z,26.25
2022-10-19T01:29:01.630Z,26.24
2022-10-19T01:29:33.039Z,26.25
2022-10-19T01:30:04.516Z,26.21
2022-10-19T01:30:35.931Z,26.26
2022-10-19T01:31:07.352Z,26.29
2022-10-19T01:31:38.701Z,26.32
2022-10-19T01:32:10.202Z,26.34
2022-10-19T01:32:41.600Z,26.36
2022-10-19T01:33:13.078Z,26.36
2022-10-19T01:33:44.613Z,26.37
2022-10-19T01:34:16.114Z,26.36
2022-10-19T01:34:47.570Z,26.39
2022-10-19T01:35:19.067Z,26.37
2022-10-19T01:35:50.619Z,26.36
2022-10-19T01:36:22.041Z,26.33
2022-10-19T01:36:53.471Z,26.29
2022-10-19T01:37:24.898Z,26.30
2022-10-19T01:37:56.435Z,26.30
2022-10-19T01:38:27.927Z,26.30
2022-10-19T01:38:59.330Z,26.30
2022-10-19T01:39:30.731Z,26.28
2022-10-19T01:40:02.135Z,26.29
2022-10-19T01:40:33.638Z,26.27
2022-10-19T01:41:05.140Z,26.25
2022-10-19T01:41:36.543Z,26.23
2022-10-19T01:42:07.972Z,26.22
2022-10-19T01:42:39.403Z,26.21
2022-10-19T01:43:10.813Z,26.20
2022-10-19T01:43:42.176Z,26.21
2022-10-19T01:44:13.621Z,26.18
2022-10-19T01:44:45.107Z,26.16
2022-10-19T01:45:16.539Z,26.17
2022-10-19T01:45:48.100Z,26.15
2022-10-19T01:46:19.590Z,26.15
2022-10-19T01:46:51.132Z,26.13
2022-10-19T01:47:22.555Z,26.11
2022-10-19T01:47:54.000Z,26.09
2022-10-19T01:48:25.403Z,26.10
2022-10-19T01:48:56.840Z,26.13
2022-10-19T01:49:28.286Z,26.13
2022-10-19T01:49:59.797Z,26.11
2022-10-19T01:50:31.286Z,26.12
2022-10-19T01:51:02.774Z,26.13
2022-10-19T01:51:34.232Z,26.13
2022-10-19T01:52:05.629Z,26.11
2022-10-19T01:52:37.145Z,26.11
2022-10-19T01:53:08.625Z,26.10
2022-10-19T01:53:40.023Z,26.08
2022-10-19T01:54:11.581Z,26.08
2022-10-19T01:54:42.940Z,26.08
2022-10-19T01:55:14.317Z,26.08
2022-10-19T01:55:45.738Z,26.08
2022-10-19T01:56:17.154Z,26.04
2022-10-19T01:56:48.550Z,26.06
2022-10-19T01:57:20.029Z,26.03
2022-10-19T01:57:51.397Z,26.03
2022-10-19T01:58:22.803Z,26.03
2022-10-19T01:58:54.191Z,26.03
2022-10-19T01:59:25.632Z,26.02
2022-10-19T01:59:57.052Z,26.04
2022-10-19T02:00:28.453Z,26.04
2022-10-19T02:01:00.012Z,26.03
2022-10-19T02:01:31.543Z,26.05
2022-10-19T02:02:03.017Z,26.02
2022-10-19T02:02:34.654Z,26.00
2022-10-19T02:03:06.295Z,25.99
2022-10-19T02:03:37.724Z,25.98
2022-10-19T02:04:09.133Z,25.97
2022-10-19T02:04:40.511Z,25.97
2022-10-19T02:05:11.885Z,25.96
2022-10-19T02:05:43.459Z,25.96
2022-10-19T02:06:14.900Z,25.92
2022-10-19T02:06:46.353Z,25.97
2022-10-19T02:07:17.804Z,25.98
2022-10-19T02:07:49.232Z,25.97
2022-10-19T02:08:20.642Z,25.99
2022-10-19T02:08:52.098Z,25.99
2022-10-19T02:09:23.505Z,25.99
2022-10-19T02:09:54.915Z,25.99
2022-10-19T02:10:26.388Z,25.97
2022-10-19T02:10:57.815Z,25.99
2022-10-19T02:11:29.300Z,25.98
2022-10-19T02:12:00.747Z,25.99
2022-10-19T02:12:32.383Z,26.00
2022-10-19T02:13:04.188Z,25.97
2022-10-19T02:13:35.833Z,25.97
2022-10-19T02:14:07.248Z,25.99
2022-10-19T02:14:38.643Z,25.97
2022-10-19T02:15:10.036Z,25.93
2022-10-19T02:15:41.459Z,25.95
2022-10-19T02:16:12.874Z,25.95
2022-10-19T02:16:44.316Z,25.96
2022-10-19T02:17:15.884Z,25.97
2022-10-19T02:17:47.296Z,25.96
2022-10-19T02:18:18.810Z,25.97
2022-10-19T02:18:50.208Z,25.99
2022-10-19T02:19:21.637Z,25.96
2022-10-19T02:19:53.110Z,25.96
2022-10-19T02:20:24.509Z,25.95
2022-10-19T02:20:55.959Z,25.95
2022-10-19T02:21:27.338Z,25.94
2022-10-19T02:21:58.740Z,25.95
2022-10-19T02:22:30.398Z,25.94
2022-10-19T02:23:01.893Z,25.95
2022-10-19T02:23:33.260Z,25.93
2022-10-19T02:24:04.694Z,25.93
2022-10-19T02:24:36.103Z,25.96
2022-10-19T02:25:07.527Z,25.94
2022-10-19T02:25:38.956Z,25.96
2022-10-19T02:26:10.439Z,25.95
2022-10-19T02:26:41.852Z,25.94
2022-10-19T02:27:13.241Z,25.94
2022-10-19T02:27:44.654Z,25.95
2022-10-19T02:28:16.103Z,25.96
2022-10-19T02:28:47.702Z,25.96
2022-10-19T02:29:19.091Z,25.95
2022-10-19T02:29:50.573Z,25.96
2022-10-19T02:30:21.945Z,25.97
2022-10-19T02:30:53.351Z,25.96
2022-10-19T02:31:24.781Z,25.95
2022-10-19T02:31:56.188Z,25.94
2022-10-19T02:32:27.559Z,25.94
2022-10-19T02:32:59.010Z,25.96
2022-10-19T02:33:30.425Z,25.94
2022-10-19T02:34:01.821Z,25.93
2022-10-19T02:34:33.238Z,25.92
2022-10-19T02:35:04.681Z,25.94
2022-10-19T02:35:36.081Z,25.92
2022-10-19T02:36:07.470Z,25.90
2022-10-19T02:36:39.037Z,25.89
2022-10-19T02:37:10.481Z,25.88
2022-10-19T02:37:41.947Z,25.86
2022-10-19T02:38:13.359Z,25.86
2022-10-19T02:38:44.730Z,25.87
2022-10-19T02:39:16.136Z,25.86
2022-10-19T02:39:47.536Z,25.86
2022-10-19T02:40:19.063Z,25.84
2022-10-19T02:40:50.479Z,25.86
2022-10-19T02:41:21.891Z,25.85
2022-10-19T02:41:53.437Z,25.85
2022-10-19T02:42:24.857Z,25.87
2022-10-19T02:42:56.312Z,25.85
2022-10-19T02:43:27.692Z,25.86
2022-10-19T02:43:59.142Z,25.87
2022-10-19T02:44:30.542Z,25.86
2022-10-19T02:45:01.953Z,25.86
2022-10-19T02:45:33.487Z,25.84
2022-10-19T02:46:04.934Z,25.84
2022-10-19T02:46:36.526Z,25.85
2022-10-19T02:47:08.023Z,25.85
2022-10-19T02:47:39.493Z,25.84
2022-10-19T02:48:10.888Z,25.83
2022-10-19T02:48:42.256Z,25.84
2022-10-19T02:49:13.646Z,25.84
2022-10-19T02:49:45.051Z,25.84
2022-10-19T02:50:16.432Z,25.82
2022-10-19T02:50:47.858Z,25.83
2022-10-19T02:51:19.247Z,25.81
2022-10-19T02:51:50.747Z,25.81
2022-10-19T02:52:22.126Z,25.81
2022-10-19T02:52:53.535Z,25.80
2022-10-19T02:53:25.044Z,25.80
2022-10-19T02:53:58.104Z,25.81
2022-10-19T02:54:31.313Z,25.81
2022-10-19T02:55:02.701Z,25.79
2022-10-19T02:55:34.305Z,25.80
2022-10-19T02:56:05.708Z,25.78
2022-10-19T02:56:37.167Z,25.80
2022-10-19T02:57:08.613Z,25.78
2022-10-19T02:57:40.043Z,25.79
2022-10-19T02:58:11.476Z,25.80
2022-10-19T02:58:42.887Z,25.79
2022-10-19T02:59:14.282Z,25.79
2022-10-19T02:59:45.680Z,25.79
2022-10-19T03:00:17.034Z,25.80
2022-10-19T03:00:48.522Z,25.81
2022-10-19T03:01:20.019Z,25.81
2022-10-19T03:01:51.533Z,25.82
2022-10-19T03:02:22.978Z,25.81
2022-10-19T03:02:54.441Z,25.81
2022-10-19T03:03:25.873Z,25.81
2022-10-19T03:03:57.337Z,25.82
2022-10-19T03:04:28.736Z,25.82
2022-10-19T03:05:00.157Z,25.82
2022-10-19T03:05:31.604Z,25.81
2022-10-19T03:06:03.001Z,25.80
2022-10-19T03:06:34.435Z,25.81
2022-10-19T03:07:05.837Z,25.79
2022-10-19T03:07:37.480Z,25.80
2022-10-19T03:08:09.074Z,25.80
2022-10-19T03:08:40.639Z,25.79
2022-10-19T03:09:12.112Z,25.78
2022-10-19T03:09:43.540Z,25.80
2022-10-19T03:10:14.959Z,25.81
2022-10-19T03:10:46.334Z,25.80
2022-10-19T03:11:17.761Z,25.80
2022-10-19T03:11:49.206Z,25.81
2022-10-19T03:12:20.622Z,25.81
2022-10-19T03:12:52.133Z,25.79
2022-10-19T03:13:23.563Z,25.78
2022-10-19T03:13:54.994Z,25.77
2022-10-19T03:14:26.455Z,25.77
2022-10-19T03:14:57.960Z,25.76
2022-10-19T03:15:29.342Z,25.78
2022-10-19T03:16:00.738Z,25.77
2022-10-19T03:16:32.202Z,25.78
2022-10-19T03:17:03.630Z,25.78
2022-10-19T03:17:35.169Z,25.75
2022-10-19T03:18:06.870Z,25.74
2022-10-19T03:18:38.346Z,25.77
2022-10-19T03:19:09.757Z,25.77
2022-10-19T03:19:41.216Z,25.76
2022-10-19T03:20:12.590Z,25.76
2022-10-19T03:20:43.951Z,25.76
2022-10-19T03:21:15.386Z,25.76
2022-10-19T03:21:46.786Z,25.74
2022-10-19T03:22:18.184Z,25.76
2022-10-19T03:22:49.634Z,25.73
2022-10-19T03:23:21.198Z,25.69
2022-10-19T03:23:52.655Z,25.74
2022-10-19T03:24:24.073Z,25.73
2022-10-19T03:24:55.492Z,25.72
2022-10-19T03:25:26.942Z,25.71
2022-10-19T03:25:58.334Z,25.68
2022-10-19T03:26:29.806Z,25.67
2022-10-19T03:27:01.230Z,25.67
2022-10-19T03:27:32.903Z,25.69
2022-10-19T03:28:04.590Z,25.70
2022-10-19T03:28:36.103Z,25.71
2022-10-19T03:29:07.634Z,25.71
2022-10-19T03:29:39.098Z,25.67
2022-10-19T03:30:10.492Z,25.69
2022-10-19T03:30:41.909Z,25.68
2022-10-19T03:31:13.313Z,25.70
2022-10-19T03:31:44.763Z,25.70
2022-10-19T03:32:16.179Z,25.71
2022-10-19T03:32:47.603Z,25.70
2022-10-19T03:33:19.085Z,25.71
2022-10-19T03:33:50.654Z,25.71
2022-10-19T03:34:22.115Z,25.74
2022-10-19T03:34:53.569Z,25.71
2022-10-19T03:35:24.980Z,25.70
2022-10-19T03:35:56.402Z,25.70
2022-10-19T03:36:27.878Z,25.68
2022-10-19T03:36:59.334Z,25.67
2022-10-19T03:37:30.780Z,25.70
2022-10-19T03:38:02.196Z,25.70
2022-10-19T03:38:33.690Z,25.67
2022-10-19T03:39:05.081Z,25.66
2022-10-19T03:39:36.561Z,25.67
2022-10-19T03:40:07.981Z,25.67
2022-10-19T03:40:39.472Z,25.67
2022-10-19T03:41:10.883Z,25.68
2022-10-19T03:41:42.326Z,25.67
2022-10-19T03:42:14.048Z,25.68
2022-10-19T03:42:45.395Z,25.69
2022-10-19T03:43:16.829Z,25.69
2022-10-19T03:43:48.251Z,25.70
2022-10-19T03:44:19.778Z,25.69
2022-10-19T03:44:51.138Z,25.72
2022-10-19T03:45:22.518Z,25.68
2022-10-19T03:45:53.890Z,25.68
2022-10-19T03:46:25.319Z,25.68
2022-10-19T03:46:56.750Z,25.69
2022-10-19T03:47:28.185Z,25.70
2022-10-19T03:47:59.573Z,25.66
2022-10-19T03:48:31.058Z,25.68
2022-10-19T03:49:02.588Z,25.69
2022-10-19T03:49:36.755Z,25.69
2022-10-19T03:50:10.900Z,25.69
2022-10-19T03:50:42.298Z,25.71
2022-10-19T03:51:13.765Z,25.68
2022-10-19T03:51:45.164Z,25.68
2022-10-19T03:52:16.580Z,25.69
2022-10-19T03:52:48.097Z,25.69
2022-10-19T03:53:19.560Z,25.70
2022-10-19T03:53:50.963Z,25.69
2022-10-19T03:54:25.025Z,25.67
2022-10-19T03:54:58.740Z,25.65
2022-10-19T03:55:30.170Z,25.66
2022-10-19T03:56:01.611Z,25.68
2022-10-19T03:56:32.969Z,25.66
2022-10-19T03:57:04.439Z,25.65
2022-10-19T03:57:36.191Z,25.66
2022-10-19T03:58:07.881Z,25.67
2022-10-19T03:58:39.278Z,25.66
2022-10-19T03:59:10.759Z,25.65
2022-10-19T03:59:42.232Z,25.64
2022-10-19T04:00:13.650Z,25.66
2022-10-19T04:00:45.119Z,25.64
2022-10-19T04:01:16.693Z,25.65
2022-10-19T04:01:48.088Z,25.66
2022-10-19T04:02:19.581Z,25.64
2022-10-19T04:02:50.945Z,25.64
2022-10-19T04:03:22.390Z,25.62
2022-10-19T04:03:53.834Z,25.62
2022-10-19T04:04:25.240Z,25.64
2022-10-19T04:04:56.671Z,25.64
2022-10-19T04:05:28.170Z,25.62
2022-10-19T04:05:59.590Z,25.61
2022-10-19T04:06:31.037Z,25.60
2022-10-19T04:07:02.493Z,25.61
2022-10-19T04:07:34.158Z,25.57
2022-10-19T04:08:05.678Z,25.55
2022-10-19T04:08:37.097Z,25.54
2022-10-19T04:09:08.530Z,25.55
2022-10-19T04:09:39.944Z,25.53
2022-10-19T04:10:11.328Z,25.55
2022-10-19T04:10:42.749Z,25.55
2022-10-19T04:11:14.190Z,25.56
2022-10-19T04:11:45.597Z,25.56
2022-10-19T04:12:17.102Z,25.57
2022-10-19T04:12:53.018Z,25.56
2022-10-19T04:13:25.443Z,25.58
2022-10-19T04:13:56.871Z,25.57
2022-10-19T04:14:33.231Z,25.59
2022-10-19T04:15:10.526Z,25.60
2022-10-19T04:15:41.962Z,25.61
2022-10-19T04:16:13.362Z,25.60
2022-10-19T04:16:44.785Z,25.59
2022-10-19T04:17:16.216Z,25.55
2022-10-19T04:17:48.700Z,25.54
2022-10-19T04:18:20.212Z,25.53
2022-10-19T04:18:51.664Z,25.56
2022-10-19T04:19:23.080Z,25.58
2022-10-19T04:19:54.520Z,25.55
2022-10-19T04:20:25.963Z,25.56
2022-10-19T04:20:57.347Z,25.56
2022-10-19T04:21:28.770Z,25.57
2022-10-19T04:22:00.170Z,25.57
2022-10-19T04:22:31.676Z,25.58
2022-10-19T04:23:03.156Z,25.58
2022-10-19T04:23:34.613Z,25.57
2022-10-19T04:24:06.039Z,25.60
2022-10-19T04:24:37.440Z,25.61
2022-10-19T04:25:08.869Z,25.61
2022-10-19T04:25:40.269Z,25.63
2022-10-19T04:26:11.769Z,25.62
2022-10-19T04:26:43.244Z,25.63
2022-10-19T04:27:14.682Z,25.62
2022-10-19T04:27:46.104Z,25.63
2022-10-19T04:28:17.587Z,25.64
2022-10-19T04:28:49.042Z,25.65
2022-10-19T04:29:21.948Z,25.64
2022-10-19T04:29:55.151Z,25.64
2022-10-19T04:30:26.550Z,25.63
2022-10-19T04:30:58.012Z,25.61
2022-10-19T04:31:29.405Z,25.58
2022-10-19T04:32:00.817Z,25.58
2022-10-19T04:32:32.299Z,25.61
2022-10-19T04:33:03.721Z,25.61
2022-10-19T04:33:35.164Z,25.61
2022-10-19T04:34:06.595Z,25.60
2022-10-19T04:34:39.993Z,25.61
2022-10-19T04:35:11.685Z,25.63
2022-10-19T04:35:43.083Z,25.62
2022-10-19T04:36:14.476Z,25.60
2022-10-19T04:36:45.867Z,25.58
2022-10-19T04:37:17.401Z,25.56
2022-10-19T04:37:48.865Z,25.56
2022-10-19T04:38:20.282Z,25.56
2022-10-19T04:38:51.732Z,25.58
2022-10-19T04:39:23.182Z,25.59
2022-10-19T04:39:54.606Z,25.59
2022-10-19T04:40:25.990Z,25.60
2022-10-19T04:40:57.392Z,25.59
2022-10-19T04:41:28.869Z,25.61
2022-10-19T04:42:00.285Z,25.59
2022-10-19T04:42:31.716Z,25.57
2022-10-19T04:43:03.184Z,25.54
2022-10-19T04:43:34.553Z,25.57
2022-10-19T04:44:06.075Z,25.56
2022-10-19T04:44:37.525Z,25.53
2022-10-19T04:45:08.980Z,25.58
2022-10-19T04:45:40.371Z,25.57
2022-10-19T04:46:11.817Z,25.59
2022-10-19T04:46:43.240Z,25.59
2022-10-19T04:47:14.681Z,25.57
2022-10-19T04:47:46.126Z,25.57
2022-10-19T04:48:17.603Z,25.58
2022-10-19T04:48:48.999Z,25.56
2022-10-19T04:49:20.431Z,25.58
2022-10-19T04:49:51.859Z,25.58
2022-10-19T04:50:23.257Z,25.56
2022-10-19T04:50:54.664Z,25.56
2022-10-19T04:51:26.171Z,25.57
2022-10-19T04:51:57.566Z,25.55
2022-10-19T04:52:28.988Z,25.57
2022-10-19T04:53:00.375Z,25.60
2022-10-19T04:53:31.931Z,25.60
2022-10-19T04:54:03.398Z,25.58
2022-10-19T04:54:34.835Z,25.58
2022-10-19T04:55:06.275Z,25.56
2022-10-19T04:55:37.687Z,25.57
2022-10-19T04:56:09.105Z,25.58
2022-10-19T04:56:40.549Z,25.60
2022-10-19T04:57:11.954Z,25.61
2022-10-19T04:57:43.387Z,25.63
2022-10-19T04:58:14.772Z,25.62
2022-10-19T04:58:46.244Z,25.62
2022-10-19T04:59:17.659Z,25.62
2022-10-19T04:59:49.099Z,25.62
2022-10-19T05:00:20.458Z,25.61
2022-10-19T05:00:51.901Z,25.61
2022-10-19T05:01:23.388Z,25.59
2022-10-19T05:01:54.866Z,25.57
2022-10-19T05:02:26.268Z,25.58
2022-10-19T05:02:57.649Z,25.56
2022-10-19T05:03:29.091Z,25.57
2022-10-19T05:04:00.762Z,25.61
2022-10-19T05:04:32.249Z,25.58
2022-10-19T05:05:03.628Z,25.59
2022-10-19T05:05:35.111Z,25.60
2022-10-19T05:06:06.711Z,25.59
2022-10-19T05:06:38.146Z,25.60
2022-10-19T05:07:09.583Z,25.60
2022-10-19T05:07:41.030Z,25.59
2022-10-19T05:08:12.411Z,25.57
2022-10-19T05:08:43.775Z,25.58
2022-10-19T05:09:15.196Z,25.59
2022-10-19T05:09:46.684Z,25.56
2022-10-19T05:10:18.129Z,25.58
2022-10-19T05:10:49.524Z,25.59
2022-10-19T05:11:20.934Z,25.59
2022-10-19T05:11:52.326Z,25.59
2022-10-19T05:12:23.709Z,25.58
2022-10-19T05:12:55.155Z,25.59
2022-10-19T05:13:26.601Z,25.55
2022-10-19T05:13:57.997Z,25.53
2022-10-19T05:14:29.634Z,25.53
2022-10-19T05:15:01.052Z,25.53
2022-10-19T05:15:32.448Z,25.54
2022-10-19T05:16:03.844Z,25.55
2022-10-19T05:16:35.317Z,25.54
2022-10-19T05:17:06.777Z,25.51
2022-10-19T05:17:38.161Z,25.51
2022-10-19T05:18:09.589Z,25.51
2022-10-19T05:18:41.068Z,25.50
2022-10-19T05:19:12.495Z,25.46
2022-10-19T05:19:43.964Z,25.48
2022-10-19T05:20:15.362Z,25.46
2022-10-19T05:20:46.734Z,25.46
2022-10-19T05:21:18.262Z,25.44
2022-10-19T05:21:49.609Z,25.44
2022-10-19T05:22:21.053Z,25.43
2022-10-19T05:22:52.548Z,25.44
2022-10-19T05:23:24.070Z,25.42
2022-10-19T05:23:55.579Z,25.43
2022-10-19T05:24:27.012Z,25.42
2022-10-19T05:24:58.425Z,25.40
2022-10-19T05:25:29.836Z,25.41
2022-10-19T05:26:01.472Z,25.41
2022-10-19T05:26:32.872Z,25.43
2022-10-19T05:27:04.297Z,25.45
2022-10-19T05:27:36.065Z,25.44
2022-10-19T05:28:07.836Z,25.43
2022-10-19T05:28:39.274Z,25.40
2022-10-19T05:29:10.756Z,25.42
2022-10-19T05:29:42.320Z,25.43
2022-10-19T05:30:13.750Z,25.45
2022-10-19T05:30:48.841Z,25.47
2022-10-19T05:31:20.480Z,25.45
2022-10-19T05:31:51.889Z,25.44
2022-10-19T05:32:23.352Z,25.46
2022-10-19T05:32:54.790Z,25.43
2022-10-19T05:33:26.254Z,25.43
2022-10-19T05:33:57.773Z,25.47
2022-10-19T05:34:29.288Z,25.47
2022-10-19T05:35:00.768Z,25.47
2022-10-19T05:35:32.153Z,25.48
2022-10-19T05:36:03.615Z,25.46
2022-10-19T05:36:35.069Z,25.48
2022-10-19T05:37:06.498Z,25.47
2022-10-19T05:37:37.907Z,25.48
2022-10-19T05:38:09.290Z,25.52
2022-10-19T05:38:40.758Z,25.51
2022-10-19T05:39:12.170Z,25.53
2022-10-19T05:39:43.580Z,25.51
2022-10-19T05:40:15.031Z,25.53
2022-10-19T05:40:50.372Z,25.52
2022-10-19T05:41:25.250Z,25.53
2022-10-19T05:41:56.891Z,25.53
2022-10-19T05:42:28.365Z,25.53
2022-10-19T05:42:59.771Z,25.53
2022-10-19T05:43:31.286Z,25.55
2022-10-19T05:44:02.806Z,25.55
2022-10-19T05:44:34.319Z,25.55
2022-10-19T05:45:05.806Z,25.53
2022-10-19T05:45:37.234Z,25.52
2022-10-19T05:46:08.661Z,25.51
2022-10-19T05:46:40.074Z,25.50
2022-10-19T05:47:11.510Z,25.48
2022-10-19T05:47:42.937Z,25.52
2022-10-19T05:48:14.355Z,25.46
2022-10-19T05:48:45.768Z,25.41
2022-10-19T05:49:17.294Z,25.42
2022-10-19T05:49:48.721Z,25.42
2022-10-19T05:50:20.136Z,25.44
2022-10-19T05:50:51.544Z,25.42
2022-10-19T05:51:22.993Z,25.41
2022-10-19T05:51:54.401Z,25.40
2022-10-19T05:52:25.849Z,25.39
2022-10-19T05:52:57.227Z,25.41
2022-10-19T05:53:28.674Z,25.41
2022-10-19T05:54:00.132Z,25.41
2022-10-19T05:54:31.594Z,25.44
2022-10-19T05:55:03.007Z,25.43
2022-10-19T05:55:34.409Z,25.43
2022-10-19T05:56:05.779Z,25.43
2022-10-19T05:56:37.193Z,25.39
2022-10-19T05:57:08.609Z,25.38
2022-10-19T05:57:40.042Z,25.41
2022-10-19T05:58:11.441Z,25.38
2022-10-19T05:58:42.865Z,25.37
2022-10-19T05:59:14.333Z,25.36
2022-10-19T05:59:45.808Z,25.36
2022-10-19T06:00:17.256Z,25.37
2022-10-19T06:00:48.686Z,25.38
2022-10-19T06:01:20.083Z,25.43
2022-10-19T06:01:51.531Z,25.42
2022-10-19T06:02:22.955Z,25.40
2022-10-19T06:02:58.982Z,25.41
2022-10-19T06:03:30.682Z,25.41
2022-10-19T06:04:02.136Z,25.36
2022-10-19T06:04:33.668Z,25.39
2022-10-19T06:05:05.119Z,25.41
2022-10-19T06:05:36.573Z,25.42
2022-10-19T06:06:07.964Z,25.43
2022-10-19T06:06:39.380Z,25.45
2022-10-19T06:07:10.781Z,25.46
2022-10-19T06:07:42.220Z,25.48
2022-10-19T06:08:13.603Z,25.47
2022-10-19T06:08:45.090Z,25.47
2022-10-19T06:09:16.497Z,25.47
2022-10-19T06:09:48.002Z,25.47
2022-10-19T06:10:19.419Z,25.47
2022-10-19T06:10:50.855Z,25.47
2022-10-19T06:11:22.294Z,25.45
2022-10-19T06:11:53.821Z,25.45
2022-10-19T06:12:25.287Z,25.48
2022-10-19T06:12:56.757Z,25.46
2022-10-19T06:13:28.199Z,25.47
2022-10-19T06:13:59.833Z,25.45
2022-10-19T06:14:31.218Z,25.43
2022-10-19T06:15:02.667Z,25.39
2022-10-19T06:15:34.122Z,25.42
2022-10-19T06:16:05.582Z,25.41
2022-10-19T06:16:37.138Z,25.40
2022-10-19T06:17:08.599Z,25.39
2022-10-19T06:17:39.993Z,25.39
2022-10-19T06:18:11.383Z,25.38
2022-10-19T06:18:42.896Z,25.38
2022-10-19T06:19:14.313Z,25.37
2022-10-19T06:19:45.662Z,25.37
2022-10-19T06:20:17.105Z,25.35
2022-10-19T06:20:48.618Z,25.34
2022-10-19T06:21:20.041Z,25.34
2022-10-19T06:21:51.477Z,25.34
2022-10-19T06:22:22.901Z,25.33
2022-10-19T06:22:54.325Z,25.32
2022-10-19T06:23:25.697Z,25.35
2022-10-19T06:23:57.119Z,25.36
2022-10-19T06:24:28.547Z,25.36
2022-10-19T06:24:59.970Z,25.32
2022-10-19T06:25:31.386Z,25.35
2022-10-19T06:26:02.880Z,25.34
2022-10-19T06:26:34.314Z,25.33
2022-10-19T06:27:05.793Z,25.34
2022-10-19T06:27:37.650Z,25.33
2022-10-19T06:28:09.299Z,25.32
2022-10-19T06:28:40.745Z,25.31
2022-10-19T06:29:12.186Z,25.34
2022-10-19T06:29:43.597Z,25.34
2022-10-19T06:30:15.042Z,25.32
2022-10-19T06:30:46.698Z,25.31
2022-10-19T06:31:18.361Z,25.34
2022-10-19T06:31:49.789Z,25.36
2022-10-19T06:32:21.198Z,25.36
2022-10-19T06:32:52.655Z,25.34
2022-10-19T06:33:24.155Z,25.36
2022-10-19T06:33:55.984Z,25.36
2022-10-19T06:34:27.627Z,25.37
2022-10-19T06:34:59.065Z,25.36
2022-10-19T06:35:30.502Z,25.34
2022-10-19T06:36:01.947Z,25.31
2022-10-19T06:36:33.397Z,25.32
2022-10-19T06:37:05.121Z,25.33
2022-10-19T06:37:36.687Z,25.33
2022-10-19T06:38:08.181Z,25.36
2022-10-19T06:38:39.566Z,25.36
2022-10-19T06:39:11.015Z,25.37
2022-10-19T06:39:42.492Z,25.37
2022-10-19T06:40:14.071Z,25.41
2022-10-19T06:40:45.538Z,25.41
2022-10-19T06:41:16.975Z,25.40
2022-10-19T06:41:48.418Z,25.39
2022-10-19T06:42:19.805Z,25.39
2022-10-19T06:42:51.253Z,25.40
2022-10-19T06:43:22.782Z,25.39
2022-10-19T06:43:54.197Z,25.41
2022-10-19T06:44:25.721Z,25.41
2022-10-19T06:44:57.060Z,25.39
2022-10-19T06:45:32.219Z,25.42
2022-10-19T06:46:06.320Z,25.41
2022-10-19T06:46:37.790Z,25.42
2022-10-19T06:47:09.356Z,25.43
2022-10-19T06:47:40.805Z,25.43